Terminal Aerodrome Forecast
Issued by NWS Jackson, KY

Home | Current Version | Previous Version | Text Only | Print | Product List | Glossary On
Versions: 1 2 3 4 5 6 7 8 9 10 11
158
FTUS43 KJKL 040223 AAA
TAFLOZ
TAF AMD
KLOZ 040223Z 0403/0424 30010KT P6SM BKN080
     FM040500 31007KT P6SM BKN020
     FM041400 31005KT P6SM SCT020=

USA.gov is the U.S. government's official web portal to all federal, state and local government web resources and services.